createdAt,value
2023-04-30T00:00:30.692Z,3.37
2023-04-30T00:02:33.936Z,2.80
2023-04-30T00:04:36.903Z,3.10
2023-04-30T00:06:39.723Z,3.20
2023-04-30T00:08:42.517Z,3.57
2023-04-30T00:10:45.631Z,3.00
2023-04-30T00:12:48.355Z,3.00
2023-04-30T00:14:51.389Z,3.00
2023-04-30T00:16:55.436Z,2.87
2023-04-30T00:18:58.170Z,3.23
2023-04-30T00:21:01.145Z,2.90
2023-04-30T00:23:03.907Z,2.93
2023-04-30T00:25:07.348Z,3.37
2023-04-30T00:27:10.098Z,3.30
2023-04-30T00:29:13.389Z,3.20
2023-04-30T00:31:16.149Z,2.63
2023-04-30T00:33:20.657Z,2.60
2023-04-30T00:35:23.481Z,3.10
2023-04-30T00:37:26.234Z,2.80
2023-04-30T00:39:28.986Z,3.10
2023-04-30T00:41:32.189Z,3.03
2023-04-30T00:43:35.342Z,3.10
2023-04-30T00:45:38.094Z,3.00
2023-04-30T00:47:41.053Z,3.10
2023-04-30T00:49:45.588Z,2.80
2023-04-30T00:51:48.309Z,3.00
2023-04-30T00:53:51.101Z,3.17
2023-04-30T00:55:53.836Z,3.30
2023-04-30T00:57:56.997Z,2.70
2023-04-30T00:59:59.747Z,3.10
2023-04-30T01:02:02.537Z,2.83
2023-04-30T01:04:05.605Z,3.10
2023-04-30T01:06:10.004Z,3.07
2023-04-30T01:08:12.796Z,2.97
2023-04-30T01:10:15.838Z,2.90
2023-04-30T01:12:21.599Z,2.67
2023-04-30T01:14:29.981Z,2.87
2023-04-30T01:16:37.012Z,3.03
2023-04-30T01:18:43.067Z,3.70
2023-04-30T01:20:49.163Z,3.30
2023-04-30T01:22:57.036Z,2.93
2023-04-30T01:25:08.810Z,3.40
2023-04-30T01:27:17.051Z,3.60
2023-04-30T01:29:21.225Z,3.37
2023-04-30T01:31:24.951Z,3.30
2023-04-30T01:33:27.757Z,2.93
2023-04-30T01:35:41.022Z,2.90
2023-04-30T01:37:46.890Z,3.03
2023-04-30T01:39:58.297Z,3.60
2023-04-30T01:42:07.449Z,3.20
2023-04-30T01:44:18.682Z,3.50
2023-04-30T01:46:25.391Z,2.87
2023-04-30T01:48:31.228Z,3.00
2023-04-30T01:50:37.341Z,3.10
2023-04-30T01:52:41.849Z,2.97
2023-04-30T01:54:47.248Z,3.13
2023-04-30T01:56:53.332Z,2.73
2023-04-30T01:58:56.074Z,3.40
2023-04-30T02:00:58.839Z,3.20
2023-04-30T02:03:03.307Z,2.93
2023-04-30T02:05:07.135Z,3.40
2023-04-30T02:07:09.989Z,3.07
2023-04-30T02:09:12.753Z,3.27
2023-04-30T02:11:15.618Z,3.17
2023-04-30T02:13:18.847Z,2.80
2023-04-30T02:15:21.699Z,3.20
2023-04-30T02:17:24.442Z,3.10
2023-04-30T02:19:28.472Z,3.13
2023-04-30T02:21:32.785Z,3.00
2023-04-30T02:23:35.559Z,3.03
2023-04-30T02:25:39.071Z,2.83
2023-04-30T02:27:41.827Z,3.03
2023-04-30T02:29:44.962Z,3.50
2023-04-30T02:31:47.875Z,2.80
2023-04-30T02:33:50.626Z,2.50
2023-04-30T02:35:55.106Z,2.80
2023-04-30T02:37:58.435Z,3.37
2023-04-30T02:40:01.258Z,3.47
2023-04-30T02:42:05.340Z,3.10
2023-04-30T02:44:08.247Z,3.10
2023-04-30T02:46:11.347Z,2.80
2023-04-30T02:48:14.166Z,3.60
2023-04-30T02:50:17.104Z,3.33
2023-04-30T02:52:21.276Z,3.27
2023-04-30T02:54:24.473Z,3.50
2023-04-30T02:56:27.388Z,3.13
2023-04-30T02:58:30.135Z,3.50
2023-04-30T03:00:33.398Z,2.70
2023-04-30T03:02:36.550Z,2.53
2023-04-30T03:04:39.617Z,3.13
2023-04-30T03:06:42.392Z,3.17
2023-04-30T03:08:46.533Z,3.00
2023-04-30T03:10:49.694Z,3.27
2023-04-30T03:12:53.871Z,3.37
2023-04-30T03:14:56.705Z,3.30
2023-04-30T03:16:59.493Z,3.20
2023-04-30T03:19:02.294Z,2.90
2023-04-30T03:21:05.173Z,3.10
2023-04-30T03:23:07.949Z,3.67
2023-04-30T03:25:12.752Z,3.20
2023-04-30T03:27:16.933Z,3.37
2023-04-30T03:29:19.699Z,3.70
2023-04-30T03:31:22.552Z,3.77
2023-04-30T03:33:26.065Z,3.00
2023-04-30T03:35:28.811Z,3.30
2023-04-30T03:37:31.821Z,2.83
2023-04-30T03:39:34.582Z,2.93
2023-04-30T03:41:39.158Z,3.20
2023-04-30T03:43:41.884Z,3.10
2023-04-30T03:45:44.678Z,3.23
2023-04-30T03:47:47.504Z,3.20
2023-04-30T03:49:55.506Z,3.30
2023-04-30T03:51:58.730Z,3.67
2023-04-30T03:54:01.438Z,3.17
2023-04-30T03:56:04.307Z,3.00
2023-04-30T03:58:08.885Z,3.40
2023-04-30T04:00:12.169Z,3.83
2023-04-30T04:02:15.004Z,3.17
2023-04-30T04:04:17.966Z,3.07
2023-04-30T04:06:21.542Z,3.27
2023-04-30T04:08:24.376Z,3.10
2023-04-30T04:10:27.137Z,3.60
2023-04-30T04:12:29.868Z,3.07
2023-04-30T04:14:34.359Z,3.17
2023-04-30T04:16:37.178Z,2.90
2023-04-30T04:18:39.943Z,3.10
2023-04-30T04:20:42.682Z,3.43
2023-04-30T04:22:46.000Z,3.00
2023-04-30T04:24:49.006Z,3.37
2023-04-30T04:26:52.058Z,3.00
2023-04-30T04:28:54.901Z,3.10
2023-04-30T04:30:59.652Z,2.87
2023-04-30T04:33:02.435Z,3.00
2023-04-30T04:35:05.653Z,3.10
2023-04-30T04:37:08.750Z,3.17
2023-04-30T04:39:13.388Z,3.00
2023-04-30T04:41:16.551Z,3.83
2023-04-30T04:43:20.055Z,3.40
2023-04-30T04:45:23.888Z,2.93
2023-04-30T04:47:28.072Z,3.40
2023-04-30T04:49:30.848Z,3.30
2023-04-30T04:51:33.822Z,2.87
2023-04-30T04:53:36.590Z,3.13
2023-04-30T04:55:39.380Z,3.07
2023-04-30T04:57:42.585Z,3.27
2023-04-30T04:59:45.335Z,3.00
2023-04-30T05:01:48.509Z,3.30
2023-04-30T05:03:53.815Z,3.00
2023-04-30T05:05:57.159Z,2.80
2023-04-30T05:07:59.923Z,3.20
2023-04-30T05:10:02.847Z,3.00
2023-04-30T05:12:06.093Z,2.70
2023-04-30T05:14:08.884Z,3.63
2023-04-30T05:16:12.020Z,3.50
2023-04-30T05:18:14.959Z,3.03
2023-04-30T05:20:19.122Z,3.37
2023-04-30T05:22:21.946Z,2.90
2023-04-30T05:24:25.266Z,3.30
2023-04-30T05:26:28.017Z,3.80
2023-04-30T05:28:30.715Z,2.93
2023-04-30T05:30:33.610Z,3.00
2023-04-30T05:32:37.002Z,3.20
2023-04-30T05:34:39.729Z,3.00
2023-04-30T05:36:44.433Z,2.77
2023-04-30T05:38:47.240Z,3.00
2023-04-30T05:40:50.202Z,2.70
2023-04-30T05:42:52.972Z,2.90
2023-04-30T05:44:55.995Z,2.83
2023-04-30T05:46:59.235Z,2.77
2023-04-30T05:49:02.109Z,2.47
2023-04-30T05:51:05.679Z,3.10
2023-04-30T05:53:09.747Z,2.90
2023-04-30T05:55:12.864Z,2.50
2023-04-30T05:57:15.642Z,2.40
2023-04-30T05:59:18.524Z,3.03
2023-04-30T06:01:22.312Z,2.40
2023-04-30T06:03:27.630Z,2.77
2023-04-30T06:05:30.435Z,2.80
2023-04-30T06:07:33.248Z,3.20
2023-04-30T06:09:37.370Z,3.07
2023-04-30T06:11:42.359Z,2.47
2023-04-30T06:13:48.614Z,2.50
2023-04-30T06:15:51.373Z,2.70
2023-04-30T06:17:54.308Z,3.07
2023-04-30T06:19:58.982Z,2.63
2023-04-30T06:22:02.045Z,2.40
2023-04-30T06:24:04.914Z,2.70
2023-04-30T06:26:09.005Z,2.13
2023-04-30T06:28:13.348Z,2.33
2023-04-30T06:30:16.396Z,2.30
2023-04-30T06:32:19.136Z,2.20
2023-04-30T06:34:22.098Z,1.80
2023-04-30T06:36:25.321Z,2.50
2023-04-30T06:38:29.892Z,2.43
2023-04-30T06:40:32.674Z,2.23
2023-04-30T06:42:36.755Z,2.23
2023-04-30T06:44:40.052Z,2.13
2023-04-30T06:46:42.820Z,2.40
2023-04-30T06:48:45.597Z,2.30
2023-04-30T06:50:48.979Z,2.97
2023-04-30T06:52:52.218Z,2.10
2023-04-30T06:54:54.931Z,2.40
2023-04-30T06:56:57.709Z,2.77
2023-04-30T06:59:01.785Z,2.30
2023-04-30T07:01:04.985Z,2.33
2023-04-30T07:03:08.001Z,2.27
2023-04-30T07:05:12.177Z,2.33
2023-04-30T07:07:15.440Z,2.37
2023-04-30T07:09:18.790Z,1.90
2023-04-30T07:11:21.513Z,1.90
2023-04-30T07:13:24.281Z,2.03
2023-04-30T07:15:28.329Z,2.00
2023-04-30T07:17:31.645Z,1.67
2023-04-30T07:19:34.554Z,2.00
2023-04-30T07:21:37.520Z,1.70
2023-04-30T07:23:41.003Z,2.00
2023-04-30T07:25:44.489Z,1.93
2023-04-30T07:27:47.732Z,2.07
2023-04-30T07:29:50.570Z,2.07
2023-04-30T07:31:55.256Z,1.90
2023-04-30T07:33:58.672Z,2.00
2023-04-30T07:36:01.454Z,1.67
2023-04-30T07:38:04.925Z,2.33
2023-04-30T07:40:15.384Z,2.20
2023-04-30T07:42:20.187Z,1.87
2023-04-30T07:44:22.990Z,2.03
2023-04-30T07:46:26.146Z,1.70
2023-04-30T07:48:31.906Z,2.00
2023-04-30T07:50:35.252Z,2.07
2023-04-30T07:52:41.534Z,1.80
2023-04-30T07:54:44.519Z,1.97
2023-04-30T07:56:49.108Z,1.90
2023-04-30T07:58:51.885Z,2.17
2023-04-30T08:00:54.720Z,2.13
2023-04-30T08:02:57.640Z,1.73
2023-04-30T08:05:02.140Z,2.17
2023-04-30T08:07:05.436Z,2.10
2023-04-30T08:09:08.705Z,1.80
2023-04-30T08:11:12.209Z,1.70
2023-04-30T08:13:15.695Z,1.90
2023-04-30T08:15:19.235Z,1.93
2023-04-30T08:17:22.200Z,1.90
2023-04-30T08:19:24.983Z,1.93
2023-04-30T08:21:29.668Z,1.60
2023-04-30T08:23:33.178Z,1.60
2023-04-30T08:25:40.294Z,1.60
2023-04-30T08:27:43.636Z,1.77
2023-04-30T08:29:46.666Z,1.70
2023-04-30T08:31:53.043Z,1.90
2023-04-30T08:33:55.858Z,2.30
2023-04-30T08:36:00.191Z,1.80
2023-04-30T08:38:04.500Z,2.00
2023-04-30T08:40:09.701Z,1.60
2023-04-30T08:42:14.903Z,1.70
2023-04-30T08:44:17.725Z,2.33
2023-04-30T08:46:23.585Z,2.30
2023-04-30T08:48:29.006Z,1.80
2023-04-30T08:50:32.674Z,2.03
2023-04-30T08:52:39.098Z,1.97
2023-04-30T08:54:45.129Z,1.80
2023-04-30T08:56:48.100Z,1.90
2023-04-30T08:58:50.892Z,1.87
2023-04-30T09:00:55.553Z,1.93
2023-04-30T09:02:59.356Z,1.73
2023-04-30T09:05:03.561Z,1.90
2023-04-30T09:07:08.921Z,1.70
2023-04-30T09:09:13.157Z,1.90
2023-04-30T09:11:24.462Z,2.30
2023-04-30T09:13:43.814Z,1.90
2023-04-30T09:15:48.037Z,1.80
2023-04-30T09:17:51.799Z,1.60
2023-04-30T09:19:56.273Z,1.90
2023-04-30T09:22:00.123Z,1.73
2023-04-30T09:24:03.960Z,1.97
2023-04-30T09:26:07.710Z,1.90
2023-04-30T09:28:13.398Z,1.70
2023-04-30T09:30:33.343Z,1.97
2023-04-30T09:32:43.672Z,1.77
2023-04-30T09:34:47.929Z,1.93
2023-04-30T09:36:55.191Z,1.90
2023-04-30T09:38:58.348Z,1.70
2023-04-30T09:41:03.429Z,1.90
2023-04-30T09:43:06.622Z,1.80
2023-04-30T09:45:12.131Z,1.73
2023-04-30T09:47:16.272Z,1.40
2023-04-30T09:49:21.048Z,1.87
2023-04-30T09:51:24.324Z,1.73
2023-04-30T09:53:29.235Z,1.80
2023-04-30T09:55:31.972Z,2.10
2023-04-30T09:57:36.331Z,3.57
2023-04-30T09:59:40.470Z,1.70
2023-04-30T10:01:44.488Z,1.80
2023-04-30T10:03:48.385Z,1.90
2023-04-30T10:05:55.980Z,1.90
2023-04-30T10:07:59.253Z,1.87
2023-04-30T10:10:05.176Z,1.87
2023-04-30T10:12:09.840Z,1.97
2023-04-30T10:14:13.409Z,1.97
2023-04-30T10:16:24.199Z,2.00
2023-04-30T10:18:29.943Z,1.60
2023-04-30T10:20:33.038Z,1.53
2023-04-30T10:22:35.858Z,4.00
2023-04-30T10:24:39.751Z,1.90
2023-04-30T10:26:43.690Z,2.07
2023-04-30T10:28:46.441Z,1.90
2023-04-30T10:30:49.307Z,2.00
2023-04-30T10:32:54.840Z,2.40
2023-04-30T10:35:02.282Z,1.67
2023-04-30T10:37:06.484Z,1.97
2023-04-30T10:39:09.370Z,1.60
2023-04-30T10:41:12.742Z,1.50
2023-04-30T10:43:15.752Z,1.77
2023-04-30T10:45:20.847Z,1.80
2023-04-30T10:47:29.464Z,1.40
2023-04-30T10:49:33.990Z,1.60
2023-04-30T10:51:49.874Z,1.40
2023-04-30T10:53:56.628Z,1.83
2023-04-30T10:56:02.051Z,1.50
2023-04-30T10:58:11.152Z,1.73
2023-04-30T11:00:21.289Z,1.60
2023-04-30T11:02:24.194Z,1.90
2023-04-30T11:04:27.274Z,1.67
2023-04-30T11:06:31.927Z,1.37
2023-04-30T11:08:37.397Z,1.50
2023-04-30T11:10:42.721Z,1.60
2023-04-30T11:12:50.804Z,1.37
2023-04-30T11:14:54.082Z,1.40
2023-04-30T11:16:56.871Z,1.80
2023-04-30T11:19:07.830Z,1.60
2023-04-30T11:21:11.991Z,2.27
2023-04-30T11:23:22.123Z,1.77
2023-04-30T11:25:40.232Z,1.27
2023-04-30T11:27:46.059Z,1.50
2023-04-30T11:29:48.813Z,1.33
2023-04-30T11:31:52.133Z,1.47
2023-04-30T11:33:55.503Z,1.87
2023-04-30T11:35:59.242Z,1.33
2023-04-30T11:38:02.034Z,1.80
2023-04-30T11:40:06.500Z,2.13
2023-04-30T11:42:10.799Z,1.70
2023-04-30T11:44:24.881Z,1.37
2023-04-30T11:46:27.709Z,2.07
2023-04-30T11:48:33.821Z,2.33
2023-04-30T11:50:36.679Z,1.43
2023-04-30T11:52:39.639Z,1.67
2023-04-30T11:54:42.382Z,1.40
2023-04-30T11:56:48.384Z,1.40
2023-04-30T11:58:56.106Z,1.50
2023-04-30T12:01:00.680Z,1.30
2023-04-30T12:03:04.293Z,1.40
2023-04-30T12:05:13.561Z,1.60
2023-04-30T12:07:16.279Z,1.63
2023-04-30T12:09:19.037Z,1.60
2023-04-30T12:11:25.230Z,1.57
2023-04-30T12:13:28.931Z,1.50
2023-04-30T12:15:33.323Z,1.60
2023-04-30T12:17:38.144Z,1.43
2023-04-30T12:19:41.143Z,1.50
2023-04-30T12:21:46.520Z,1.60
2023-04-30T12:23:49.259Z,1.60
2023-04-30T12:25:52.497Z,1.70
2023-04-30T12:27:55.645Z,1.23
2023-04-30T12:29:58.379Z,1.63
2023-04-30T12:32:02.520Z,1.50
2023-04-30T12:34:06.543Z,1.50
2023-04-30T12:36:14.935Z,1.30
2023-04-30T12:38:24.437Z,1.77
2023-04-30T12:40:31.362Z,2.00
2023-04-30T12:42:35.751Z,1.60
2023-04-30T12:44:43.950Z,1.37
2023-04-30T12:46:48.084Z,1.40
2023-04-30T12:48:52.583Z,1.57
2023-04-30T12:50:55.776Z,1.47
2023-04-30T12:53:03.150Z,2.17
2023-04-30T12:55:18.203Z,1.40
2023-04-30T12:57:20.982Z,1.40
2023-04-30T12:59:23.800Z,1.43
2023-04-30T13:01:26.605Z,1.53
2023-04-30T13:03:29.916Z,1.40
2023-04-30T13:05:34.032Z,1.40
2023-04-30T13:07:42.455Z,1.53
2023-04-30T13:09:45.153Z,1.40
2023-04-30T13:11:48.500Z,1.50
2023-04-30T13:13:51.282Z,1.27
2023-04-30T13:15:54.015Z,1.40
2023-04-30T13:17:57.298Z,1.87
2023-04-30T13:20:00.526Z,1.60
2023-04-30T13:22:04.564Z,2.80
2023-04-30T13:24:07.635Z,1.40
2023-04-30T13:26:10.340Z,1.40
2023-04-30T13:28:13.566Z,1.30
2023-04-30T13:30:16.350Z,1.50
2023-04-30T13:32:19.067Z,1.30
2023-04-30T13:34:21.812Z,1.30
2023-04-30T13:36:25.106Z,1.50
2023-04-30T13:38:29.192Z,1.60
2023-04-30T13:40:31.934Z,1.40
2023-04-30T13:42:35.169Z,1.40
2023-04-30T13:44:39.002Z,1.57
2023-04-30T13:46:41.811Z,1.10
2023-04-30T13:48:48.149Z,1.60
2023-04-30T13:50:52.530Z,1.60
2023-04-30T13:52:55.471Z,1.37
2023-04-30T13:54:59.569Z,1.40
2023-04-30T13:57:02.370Z,1.57
2023-04-30T13:59:05.545Z,2.03
2023-04-30T14:01:08.531Z,1.53
2023-04-30T14:03:12.251Z,1.23
2023-04-30T14:05:15.907Z,1.43
2023-04-30T14:07:19.702Z,1.23
2023-04-30T14:09:22.538Z,1.50
2023-04-30T14:11:27.298Z,1.20
2023-04-30T14:13:31.728Z,1.20
2023-04-30T14:15:36.646Z,1.43
2023-04-30T14:17:39.619Z,3.27
2023-04-30T14:19:42.748Z,1.50
2023-04-30T14:21:48.450Z,1.10
2023-04-30T14:23:52.333Z,2.00
2023-04-30T14:25:55.346Z,1.63
2023-04-30T14:27:59.513Z,1.50
2023-04-30T14:30:03.832Z,1.40
2023-04-30T14:32:10.232Z,1.40
2023-04-30T14:34:13.491Z,1.40
2023-04-30T14:36:20.577Z,2.20
2023-04-30T14:38:25.256Z,1.20
2023-04-30T14:40:28.003Z,1.43
2023-04-30T14:42:31.026Z,1.50
2023-04-30T14:44:38.141Z,1.70
2023-04-30T14:46:41.027Z,1.30
2023-04-30T14:48:45.774Z,1.50
2023-04-30T14:50:49.811Z,1.23
2023-04-30T14:52:53.133Z,2.23
2023-04-30T14:54:56.141Z,1.33
2023-04-30T14:56:59.337Z,2.73
2023-04-30T14:59:02.855Z,1.60
2023-04-30T15:01:07.896Z,1.20
2023-04-30T15:03:10.886Z,1.40
2023-04-30T15:05:14.024Z,1.60
2023-04-30T15:07:17.126Z,1.40
2023-04-30T15:09:19.847Z,1.40
2023-04-30T15:11:24.161Z,1.63
2023-04-30T15:13:26.913Z,1.47
2023-04-30T15:15:29.772Z,1.63
2023-04-30T15:17:36.734Z,1.50
2023-04-30T15:19:40.010Z,1.60
2023-04-30T15:21:45.396Z,1.30
2023-04-30T15:23:50.307Z,1.33
2023-04-30T15:25:53.618Z,1.77
2023-04-30T15:27:56.996Z,1.83
2023-04-30T15:30:00.361Z,1.33
2023-04-30T15:32:03.362Z,1.40
2023-04-30T15:34:07.412Z,1.60
2023-04-30T15:36:11.037Z,1.43
2023-04-30T15:38:14.263Z,1.40
2023-04-30T15:40:17.273Z,1.50
2023-04-30T15:42:20.052Z,1.73
2023-04-30T15:44:22.959Z,1.83
2023-04-30T15:46:26.407Z,1.80
2023-04-30T15:48:29.924Z,1.80
2023-04-30T15:50:34.053Z,1.43
2023-04-30T15:52:38.912Z,1.63
2023-04-30T15:54:43.276Z,1.50
2023-04-30T15:56:46.034Z,1.30
2023-04-30T15:58:49.313Z,1.20
2023-04-30T16:00:53.656Z,1.83
2023-04-30T16:02:56.966Z,1.60
2023-04-30T16:04:59.727Z,1.30
2023-04-30T16:07:04.668Z,1.63
2023-04-30T16:09:07.785Z,1.37
2023-04-30T16:11:10.842Z,1.37
2023-04-30T16:13:13.916Z,1.23
2023-04-30T16:15:17.460Z,1.20
2023-04-30T16:17:20.693Z,1.37
2023-04-30T16:19:26.092Z,1.40
2023-04-30T16:21:29.176Z,1.20
2023-04-30T16:23:33.742Z,1.33
2023-04-30T16:25:37.613Z,2.23
2023-04-30T16:27:40.600Z,1.53
2023-04-30T16:29:43.865Z,3.10
2023-04-30T16:31:47.886Z,1.63
2023-04-30T16:33:50.712Z,1.30
2023-04-30T16:35:56.770Z,1.33
2023-04-30T16:38:00.133Z,1.40
2023-04-30T16:40:06.422Z,1.20
2023-04-30T16:42:09.320Z,1.20
2023-04-30T16:44:12.305Z,1.27
2023-04-30T16:46:19.948Z,1.43
2023-04-30T16:48:23.453Z,1.40
2023-04-30T16:50:26.966Z,1.17
2023-04-30T16:52:29.730Z,1.17
2023-04-30T16:54:32.437Z,1.30
2023-04-30T16:56:37.147Z,1.90
2023-04-30T16:58:39.919Z,1.23
2023-04-30T17:00:43.081Z,1.10
2023-04-30T17:02:48.879Z,1.67
2023-04-30T17:04:52.383Z,1.50
2023-04-30T17:06:55.121Z,1.33
2023-04-30T17:08:59.465Z,1.30
2023-04-30T17:11:02.869Z,3.27
2023-04-30T17:13:06.898Z,1.40
2023-04-30T17:15:10.970Z,1.00
2023-04-30T17:17:13.776Z,1.03
2023-04-30T17:19:17.883Z,1.50
2023-04-30T17:21:21.079Z,1.63
2023-04-30T17:23:27.197Z,1.40
2023-04-30T17:25:32.339Z,3.00
2023-04-30T17:27:36.391Z,1.17
2023-04-30T17:29:40.476Z,1.50
2023-04-30T17:31:44.048Z,1.63
2023-04-30T17:33:47.065Z,1.30
2023-04-30T17:35:49.808Z,1.40
2023-04-30T17:37:52.996Z,1.40
2023-04-30T17:40:00.017Z,1.70
2023-04-30T17:42:03.357Z,1.10
2023-04-30T17:44:06.666Z,1.53
2023-04-30T17:46:10.737Z,1.90
2023-04-30T17:48:13.587Z,1.70
2023-04-30T17:50:16.520Z,1.60
2023-04-30T17:52:20.760Z,1.60
2023-04-30T17:54:30.838Z,1.53
2023-04-30T17:56:34.333Z,1.60
2023-04-30T17:58:39.787Z,1.33
2023-04-30T18:00:43.576Z,1.30
2023-04-30T18:02:47.705Z,2.03
2023-04-30T18:04:50.694Z,1.57
2023-04-30T18:06:54.214Z,1.30
2023-04-30T18:09:01.219Z,1.83
2023-04-30T18:11:04.112Z,1.57
2023-04-30T18:13:07.007Z,1.43
2023-04-30T18:15:10.478Z,1.67
2023-04-30T18:17:15.126Z,1.93
2023-04-30T18:19:19.242Z,1.80
2023-04-30T18:21:22.230Z,1.97
2023-04-30T18:23:25.974Z,1.73
2023-04-30T18:25:28.864Z,1.90
2023-04-30T18:27:33.884Z,2.80
2023-04-30T18:29:37.278Z,2.10
2023-04-30T18:31:41.041Z,2.10
2023-04-30T18:33:43.927Z,2.00
2023-04-30T18:35:50.698Z,2.03
2023-04-30T18:37:53.603Z,1.83
2023-04-30T18:39:57.307Z,1.90
2023-04-30T18:42:00.278Z,2.00
2023-04-30T18:44:03.867Z,1.90
2023-04-30T18:46:07.365Z,2.00
2023-04-30T18:48:10.214Z,1.67
2023-04-30T18:50:16.948Z,1.80
2023-04-30T18:52:21.332Z,1.83
2023-04-30T18:54:24.900Z,1.90
2023-04-30T18:56:27.815Z,1.93
2023-04-30T18:58:30.720Z,1.87
2023-04-30T19:00:33.914Z,1.43
2023-04-30T19:02:37.308Z,1.77
2023-04-30T19:04:40.157Z,1.80
2023-04-30T19:06:43.364Z,2.00
2023-04-30T19:08:47.499Z,4.70
2023-04-30T19:10:50.883Z,2.00
2023-04-30T19:12:53.658Z,1.73
2023-04-30T19:14:56.439Z,1.93
2023-04-30T19:17:00.303Z,1.80
2023-04-30T19:19:04.684Z,1.90
2023-04-30T19:21:08.850Z,1.90
2023-04-30T19:23:11.618Z,1.83
2023-04-30T19:25:15.678Z,1.93
2023-04-30T19:27:18.820Z,2.03
2023-04-30T19:29:22.030Z,2.37
2023-04-30T19:31:25.263Z,1.83
2023-04-30T19:33:28.764Z,2.33
2023-04-30T19:35:31.996Z,1.80
2023-04-30T19:37:34.750Z,1.97
2023-04-30T19:39:38.026Z,1.97
2023-04-30T19:41:42.137Z,2.50
2023-04-30T19:43:45.372Z,2.03
2023-04-30T19:45:48.261Z,2.10
2023-04-30T19:47:51.137Z,2.00
2023-04-30T19:49:54.317Z,2.00
2023-04-30T19:51:57.549Z,2.47
2023-04-30T19:54:00.383Z,2.20
2023-04-30T19:56:03.190Z,2.27
2023-04-30T19:58:07.550Z,2.30
2023-04-30T20:00:12.923Z,2.33
2023-04-30T20:02:15.813Z,2.37
2023-04-30T20:04:18.641Z,2.70
2023-04-30T20:06:22.125Z,2.87
2023-04-30T20:08:24.986Z,2.80
2023-04-30T20:10:27.724Z,2.23
2023-04-30T20:12:30.470Z,2.90
2023-04-30T20:14:34.540Z,3.00
2023-04-30T20:16:37.504Z,3.20
2023-04-30T20:18:40.806Z,2.97
2023-04-30T20:20:43.617Z,3.47
2023-04-30T20:22:46.935Z,3.03
2023-04-30T20:24:49.852Z,2.73
2023-04-30T20:26:52.560Z,4.77
2023-04-30T20:28:55.312Z,2.83
2023-04-30T20:30:59.342Z,2.80
2023-04-30T20:33:03.424Z,2.63
2023-04-30T20:35:07.222Z,2.70
2023-04-30T20:37:10.042Z,3.10
2023-04-30T20:39:13.460Z,2.97
2023-04-30T20:41:16.219Z,3.37
2023-04-30T20:43:19.177Z,3.60
2023-04-30T20:45:23.158Z,2.97
2023-04-30T20:47:33.135Z,3.43
2023-04-30T20:49:37.178Z,2.80
2023-04-30T20:51:40.186Z,3.10
2023-04-30T20:53:42.967Z,3.43
2023-04-30T20:55:46.338Z,3.13
2023-04-30T20:57:49.972Z,3.33
2023-04-30T20:59:52.708Z,3.17
2023-04-30T21:01:55.458Z,3.03
2023-04-30T21:04:00.729Z,3.33
2023-04-30T21:06:03.536Z,3.40
2023-04-30T21:08:06.550Z,3.00
2023-04-30T21:10:09.690Z,3.27
2023-04-30T21:12:13.051Z,3.10
2023-04-30T21:14:15.909Z,3.13
2023-04-30T21:16:18.699Z,3.23
2023-04-30T21:18:21.536Z,3.17
2023-04-30T21:20:25.618Z,3.50
2023-04-30T21:22:28.714Z,3.20
2023-04-30T21:24:31.657Z,3.30
2023-04-30T21:26:34.750Z,3.10
2023-04-30T21:28:38.033Z,3.03
2023-04-30T21:30:41.146Z,2.90
2023-04-30T21:32:45.090Z,3.33
2023-04-30T21:34:49.513Z,3.70
2023-04-30T21:36:53.501Z,3.77
2023-04-30T21:38:59.033Z,4.93
2023-04-30T21:41:01.928Z,3.37
2023-04-30T21:43:07.362Z,4.07
2023-04-30T21:45:10.533Z,3.80
2023-04-30T21:47:13.784Z,3.67
2023-04-30T21:49:16.830Z,3.80
2023-04-30T21:51:21.346Z,3.43
2023-04-30T21:53:25.616Z,3.63
2023-04-30T21:55:28.465Z,3.80
2023-04-30T21:57:31.344Z,3.90
2023-04-30T21:59:34.982Z,3.87
2023-04-30T22:01:38.218Z,4.67
2023-04-30T22:03:43.167Z,4.17
2023-04-30T22:05:46.347Z,4.77
2023-04-30T22:07:49.648Z,4.50
2023-04-30T22:09:54.236Z,3.57
2023-04-30T22:12:00.021Z,4.00
2023-04-30T22:14:05.488Z,4.37
2023-04-30T22:16:08.871Z,4.10
2023-04-30T22:18:11.632Z,3.90
2023-04-30T22:20:15.465Z,4.33
2023-04-30T22:22:18.260Z,4.33
2023-04-30T22:24:21.854Z,4.47
2023-04-30T22:26:25.922Z,4.77
2023-04-30T22:28:28.924Z,3.87
2023-04-30T22:30:34.050Z,4.67
2023-04-30T22:32:36.934Z,5.03
2023-04-30T22:34:41.868Z,4.00
2023-04-30T22:36:45.983Z,4.07
2023-04-30T22:38:49.192Z,4.20
2023-04-30T22:40:52.165Z,4.10
2023-04-30T22:42:56.474Z,4.17
2023-04-30T22:44:59.346Z,4.07
2023-04-30T22:47:05.656Z,4.40
2023-04-30T22:49:10.603Z,5.30
2023-04-30T22:51:18.106Z,4.40
2023-04-30T22:53:21.948Z,5.60
2023-04-30T22:55:25.217Z,4.87
2023-04-30T22:57:28.212Z,5.00
2023-04-30T22:59:32.259Z,5.07
2023-04-30T23:01:36.010Z,4.20
2023-04-30T23:03:39.226Z,5.07
2023-04-30T23:05:42.115Z,4.80
2023-04-30T23:07:48.575Z,5.17
2023-04-30T23:09:52.079Z,4.93
2023-04-30T23:11:55.416Z,4.63
2023-04-30T23:13:58.209Z,4.63
2023-04-30T23:16:05.359Z,4.70
2023-04-30T23:18:08.736Z,5.03
2023-04-30T23:20:11.776Z,5.10
2023-04-30T23:22:14.673Z,4.50
2023-04-30T23:24:17.464Z,4.67
2023-04-30T23:26:20.695Z,5.27
2023-04-30T23:28:24.404Z,5.07
2023-04-30T23:30:27.160Z,4.70
2023-04-30T23:32:31.469Z,4.80
2023-04-30T23:34:34.323Z,4.97
2023-04-30T23:36:37.066Z,5.07
2023-04-30T23:38:39.804Z,5.40
2023-04-30T23:40:42.568Z,4.93
2023-04-30T23:42:45.768Z,4.20
2023-04-30T23:44:48.589Z,5.47
2023-04-30T23:46:52.178Z,5.20
2023-04-30T23:48:56.650Z,5.60
2023-04-30T23:51:00.273Z,5.33
2023-04-30T23:53:03.336Z,5.20
2023-04-30T23:55:07.098Z,4.73
2023-04-30T23:57:10.249Z,5.90
2023-04-30T23:59:13.876Z,5.77
